sensor_id;sensor_type;location;lat;lon;timestamp;P1;durP1;ratioP1;P2;durP2;ratioP2
26634;SDS011;14490;54.208;37.686;2023-04-26T00:02:00;16.95;;;12.63;;
26634;SDS011;14490;54.208;37.686;2023-04-26T00:04:29;18.23;;;12.35;;
26634;SDS011;14490;54.208;37.686;2023-04-26T00:06:58;19.50;;;12.88;;
26634;SDS011;14490;54.208;37.686;2023-04-26T00:09:25;19.17;;;13.20;;
26634;SDS011;14490;54.208;37.686;2023-04-26T00:11:53;18.77;;;13.18;;
26634;SDS011;14490;54.208;37.686;2023-04-26T00:14:20;19.40;;;12.65;;
26634;SDS011;14490;54.208;37.686;2023-04-26T00:16:48;20.35;;;12.48;;
26634;SDS011;14490;54.208;37.686;2023-04-26T00:19:15;16.13;;;11.85;;
26634;SDS011;14490;54.208;37.686;2023-04-26T00:21:43;22.65;;;13.15;;
26634;SDS011;14490;54.208;37.686;2023-04-26T00:24:12;18.70;;;12.82;;
26634;SDS011;14490;54.208;37.686;2023-04-26T00:26:39;19.02;;;12.48;;
26634;SDS011;14490;54.208;37.686;2023-04-26T00:29:07;16.83;;;12.15;;
26634;SDS011;14490;54.208;37.686;2023-04-26T00:31:34;19.23;;;12.88;;
26634;SDS011;14490;54.208;37.686;2023-04-26T00:34:01;19.50;;;13.32;;
26634;SDS011;14490;54.208;37.686;2023-04-26T00:36:29;19.67;;;12.88;;
26634;SDS011;14490;54.208;37.686;2023-04-26T00:38:56;20.50;;;12.05;;
26634;SDS011;14490;54.208;37.686;2023-04-26T00:41:25;18.38;;;12.60;;
26634;SDS011;14490;54.208;37.686;2023-04-26T00:43:53;19.25;;;12.35;;
26634;SDS011;14490;54.208;37.686;2023-04-26T00:46:20;16.70;;;11.20;;
26634;SDS011;14490;54.208;37.686;2023-04-26T00:48:48;15.52;;;10.75;;
26634;SDS011;14490;54.208;37.686;2023-04-26T00:51:16;14.25;;;10.32;;
26634;SDS011;14490;54.208;37.686;2023-04-26T00:53:44;13.15;;;9.82;;
26634;SDS011;14490;54.208;37.686;2023-04-26T00:56:13;9.75;;;8.77;;
26634;SDS011;14490;54.208;37.686;2023-04-26T00:58:43;12.73;;;8.85;;
26634;SDS011;14490;54.208;37.686;2023-04-26T01:01:11;13.80;;;9.73;;
26634;SDS011;14490;54.208;37.686;2023-04-26T01:03:39;9.93;;;7.70;;
26634;SDS011;14490;54.208;37.686;2023-04-26T01:06:08;10.05;;;7.15;;
26634;SDS011;14490;54.208;37.686;2023-04-26T01:08:35;10.70;;;8.73;;
26634;SDS011;14490;54.208;37.686;2023-04-26T01:11:03;10.98;;;7.90;;
26634;SDS011;14490;54.208;37.686;2023-04-26T01:13:31;10.15;;;7.80;;
26634;SDS011;14490;54.208;37.686;2023-04-26T01:16:00;11.52;;;6.80;;
26634;SDS011;14490;54.208;37.686;2023-04-26T01:18:28;10.02;;;7.47;;
26634;SDS011;14490;54.208;37.686;2023-04-26T01:20:55;9.38;;;7.57;;
26634;SDS011;14490;54.208;37.686;2023-04-26T01:23:24;9.75;;;7.68;;
26634;SDS011;14490;54.208;37.686;2023-04-26T01:25:52;9.98;;;7.50;;
26634;SDS011;14490;54.208;37.686;2023-04-26T01:28:20;11.77;;;8.13;;
26634;SDS011;14490;54.208;37.686;2023-04-26T01:30:48;7.85;;;7.13;;
26634;SDS011;14490;54.208;37.686;2023-04-26T01:33:15;10.52;;;7.88;;
26634;SDS011;14490;54.208;37.686;2023-04-26T01:35:43;10.93;;;8.00;;
26634;SDS011;14490;54.208;37.686;2023-04-26T01:38:10;11.75;;;8.63;;
26634;SDS011;14490;54.208;37.686;2023-04-26T01:40:40;8.90;;;7.95;;
26634;SDS011;14490;54.208;37.686;2023-04-26T01:43:10;11.88;;;9.02;;
26634;SDS011;14490;54.208;37.686;2023-04-26T01:45:39;14.02;;;10.25;;
26634;SDS011;14490;54.208;37.686;2023-04-26T01:48:07;14.98;;;10.27;;
26634;SDS011;14490;54.208;37.686;2023-04-26T01:50:34;12.35;;;9.65;;
26634;SDS011;14490;54.208;37.686;2023-04-26T01:53:01;11.95;;;10.05;;
26634;SDS011;14490;54.208;37.686;2023-04-26T01:55:29;11.45;;;9.18;;
26634;SDS011;14490;54.208;37.686;2023-04-26T01:57:58;14.52;;;9.27;;
26634;SDS011;14490;54.208;37.686;2023-04-26T02:00:26;10.60;;;8.70;;
26634;SDS011;14490;54.208;37.686;2023-04-26T02:02:55;16.02;;;9.43;;
26634;SDS011;14490;54.208;37.686;2023-04-26T02:05:22;11.25;;;8.73;;
26634;SDS011;14490;54.208;37.686;2023-04-26T02:07:50;12.45;;;8.65;;
26634;SDS011;14490;54.208;37.686;2023-04-26T02:10:21;11.60;;;8.07;;
26634;SDS011;14490;54.208;37.686;2023-04-26T02:12:48;10.05;;;7.53;;
26634;SDS011;14490;54.208;37.686;2023-04-26T02:15:17;11.15;;;8.50;;
26634;SDS011;14490;54.208;37.686;2023-04-26T02:17:45;9.82;;;8.00;;
26634;SDS011;14490;54.208;37.686;2023-04-26T02:20:13;9.20;;;7.78;;
26634;SDS011;14490;54.208;37.686;2023-04-26T02:22:41;9.00;;;8.00;;
26634;SDS011;14490;54.208;37.686;2023-04-26T02:25:08;12.15;;;7.80;;
26634;SDS011;14490;54.208;37.686;2023-04-26T02:27:36;11.60;;;8.93;;
26634;SDS011;14490;54.208;37.686;2023-04-26T02:30:04;9.70;;;8.70;;
26634;SDS011;14490;54.208;37.686;2023-04-26T02:32:35;11.50;;;9.52;;
26634;SDS011;14490;54.208;37.686;2023-04-26T02:35:03;10.70;;;9.05;;
26634;SDS011;14490;54.208;37.686;2023-04-26T02:37:31;13.20;;;9.10;;
26634;SDS011;14490;54.208;37.686;2023-04-26T02:39:59;12.35;;;9.10;;
26634;SDS011;14490;54.208;37.686;2023-04-26T02:42:26;12.65;;;10.68;;
26634;SDS011;14490;54.208;37.686;2023-04-26T02:44:53;13.63;;;8.93;;
26634;SDS011;14490;54.208;37.686;2023-04-26T02:47:21;14.60;;;10.60;;
26634;SDS011;14490;54.208;37.686;2023-04-26T02:49:50;13.68;;;10.68;;
26634;SDS011;14490;54.208;37.686;2023-04-26T02:52:17;13.73;;;9.90;;
26634;SDS011;14490;54.208;37.686;2023-04-26T02:54:44;15.35;;;11.18;;
26634;SDS011;14490;54.208;37.686;2023-04-26T02:57:12;15.98;;;11.63;;
26634;SDS011;14490;54.208;37.686;2023-04-26T02:59:40;15.80;;;11.88;;
26634;SDS011;14490;54.208;37.686;2023-04-26T03:02:08;17.02;;;10.85;;
26634;SDS011;14490;54.208;37.686;2023-04-26T03:04:35;17.90;;;12.48;;
26634;SDS011;14490;54.208;37.686;2023-04-26T03:07:05;16.77;;;12.35;;
26634;SDS011;14490;54.208;37.686;2023-04-26T03:09:33;16.63;;;12.65;;
26634;SDS011;14490;54.208;37.686;2023-04-26T03:12:02;17.52;;;12.18;;
26634;SDS011;14490;54.208;37.686;2023-04-26T03:14:31;17.67;;;12.65;;
26634;SDS011;14490;54.208;37.686;2023-04-26T03:16:58;21.70;;;13.82;;
26634;SDS011;14490;54.208;37.686;2023-04-26T03:19:28;19.17;;;13.07;;
26634;SDS011;14490;54.208;37.686;2023-04-26T03:21:57;22.23;;;13.65;;
26634;SDS011;14490;54.208;37.686;2023-04-26T03:24:26;19.48;;;13.55;;
26634;SDS011;14490;54.208;37.686;2023-04-26T03:26:54;22.45;;;14.57;;
26634;SDS011;14490;54.208;37.686;2023-04-26T03:29:22;26.10;;;15.55;;
26634;SDS011;14490;54.208;37.686;2023-04-26T03:31:49;21.48;;;14.18;;
26634;SDS011;14490;54.208;37.686;2023-04-26T03:34:17;23.27;;;14.88;;
26634;SDS011;14490;54.208;37.686;2023-04-26T03:36:45;22.23;;;14.95;;
26634;SDS011;14490;54.208;37.686;2023-04-26T03:39:12;24.63;;;15.35;;
26634;SDS011;14490;54.208;37.686;2023-04-26T03:41:42;30.33;;;17.65;;
26634;SDS011;14490;54.208;37.686;2023-04-26T03:44:10;30.65;;;17.75;;
26634;SDS011;14490;54.208;37.686;2023-04-26T03:46:38;28.63;;;16.30;;
26634;SDS011;14490;54.208;37.686;2023-04-26T03:49:05;26.25;;;17.58;;
26634;SDS011;14490;54.208;37.686;2023-04-26T03:51:33;28.63;;;17.10;;
26634;SDS011;14490;54.208;37.686;2023-04-26T03:54:00;29.98;;;17.42;;
26634;SDS011;14490;54.208;37.686;2023-04-26T03:56:28;27.38;;;17.08;;
26634;SDS011;14490;54.208;37.686;2023-04-26T03:58:57;24.83;;;17.23;;
26634;SDS011;14490;54.208;37.686;2023-04-26T04:01:24;24.25;;;14.55;;
26634;SDS011;14490;54.208;37.686;2023-04-26T04:03:52;23.45;;;13.93;;
26634;SDS011;14490;54.208;37.686;2023-04-26T04:06:20;17.15;;;11.65;;
26634;SDS011;14490;54.208;37.686;2023-04-26T04:08:47;21.08;;;13.52;;
26634;SDS011;14490;54.208;37.686;2023-04-26T04:11:15;18.77;;;12.30;;
26634;SDS011;14490;54.208;37.686;2023-04-26T04:13:43;17.02;;;12.95;;
26634;SDS011;14490;54.208;37.686;2023-04-26T04:16:15;13.57;;;11.77;;
26634;SDS011;14490;54.208;37.686;2023-04-26T04:18:43;16.60;;;11.75;;
26634;SDS011;14490;54.208;37.686;2023-04-26T04:21:11;11.30;;;9.93;;
26634;SDS011;14490;54.208;37.686;2023-04-26T04:23:38;12.95;;;9.85;;
26634;SDS011;14490;54.208;37.686;2023-04-26T04:26:06;11.50;;;9.82;;
26634;SDS011;14490;54.208;37.686;2023-04-26T04:28:34;12.15;;;10.70;;
26634;SDS011;14490;54.208;37.686;2023-04-26T04:31:01;10.77;;;9.18;;
26634;SDS011;14490;54.208;37.686;2023-04-26T04:33:30;9.05;;;8.25;;
26634;SDS011;14490;54.208;37.686;2023-04-26T04:35:57;8.98;;;8.18;;
26634;SDS011;14490;54.208;37.686;2023-04-26T04:38:25;10.45;;;9.32;;
26634;SDS011;14490;54.208;37.686;2023-04-26T04:40:53;11.38;;;10.20;;
26634;SDS011;14490;54.208;37.686;2023-04-26T04:43:21;10.43;;;9.43;;
26634;SDS011;14490;54.208;37.686;2023-04-26T04:45:48;10.55;;;9.50;;
26634;SDS011;14490;54.208;37.686;2023-04-26T04:48:16;10.60;;;9.40;;
26634;SDS011;14490;54.208;37.686;2023-04-26T04:50:46;11.30;;;10.13;;
26634;SDS011;14490;54.208;37.686;2023-04-26T04:53:15;9.73;;;8.95;;
26634;SDS011;14490;54.208;37.686;2023-04-26T04:55:42;11.50;;;10.00;;
26634;SDS011;14490;54.208;37.686;2023-04-26T04:58:09;8.65;;;7.97;;
26634;SDS011;14490;54.208;37.686;2023-04-26T05:00:38;11.18;;;10.18;;
26634;SDS011;14490;54.208;37.686;2023-04-26T05:03:06;15.80;;;14.27;;
26634;SDS011;14490;54.208;37.686;2023-04-26T05:05:34;21.20;;;19.08;;
26634;SDS011;14490;54.208;37.686;2023-04-26T05:08:03;17.70;;;16.10;;
26634;SDS011;14490;54.208;37.686;2023-04-26T05:10:34;18.98;;;17.45;;
26634;SDS011;14490;54.208;37.686;2023-04-26T05:13:02;14.65;;;13.45;;
26634;SDS011;14490;54.208;37.686;2023-04-26T05:15:30;13.38;;;12.07;;
26634;SDS011;14490;54.208;37.686;2023-04-26T05:17:57;11.48;;;10.45;;
26634;SDS011;14490;54.208;37.686;2023-04-26T05:20:25;9.43;;;8.63;;
26634;SDS011;14490;54.208;37.686;2023-04-26T05:22:53;7.00;;;6.40;;
26634;SDS011;14490;54.208;37.686;2023-04-26T05:25:22;8.32;;;7.72;;
26634;SDS011;14490;54.208;37.686;2023-04-26T05:27:49;7.90;;;7.30;;
26634;SDS011;14490;54.208;37.686;2023-04-26T05:30:17;7.75;;;7.10;;
26634;SDS011;14490;54.208;37.686;2023-04-26T05:32:44;6.75;;;5.70;;
26634;SDS011;14490;54.208;37.686;2023-04-26T05:35:12;7.28;;;6.47;;
26634;SDS011;14490;54.208;37.686;2023-04-26T05:37:39;5.35;;;4.85;;
26634;SDS011;14490;54.208;37.686;2023-04-26T05:40:07;5.22;;;4.82;;
26634;SDS011;14490;54.208;37.686;2023-04-26T05:42:37;5.15;;;4.75;;
26634;SDS011;14490;54.208;37.686;2023-04-26T05:45:05;5.63;;;5.22;;
26634;SDS011;14490;54.208;37.686;2023-04-26T05:47:37;4.63;;;4.25;;
26634;SDS011;14490;54.208;37.686;2023-04-26T05:50:08;5.25;;;4.13;;
26634;SDS011;14490;54.208;37.686;2023-04-26T05:52:36;4.38;;;4.07;;
26634;SDS011;14490;54.208;37.686;2023-04-26T05:55:04;4.32;;;4.03;;
26634;SDS011;14490;54.208;37.686;2023-04-26T05:57:40;5.30;;;4.30;;
26634;SDS011;14490;54.208;37.686;2023-04-26T06:00:07;5.97;;;3.92;;
26634;SDS011;14490;54.208;37.686;2023-04-26T06:02:36;4.95;;;4.55;;
26634;SDS011;14490;54.208;37.686;2023-04-26T06:05:07;5.38;;;4.10;;
26634;SDS011;14490;54.208;37.686;2023-04-26T06:07:35;4.40;;;4.00;;
26634;SDS011;14490;54.208;37.686;2023-04-26T06:10:03;3.95;;;3.60;;
26634;SDS011;14490;54.208;37.686;2023-04-26T06:12:32;3.38;;;2.90;;
26634;SDS011;14490;54.208;37.686;2023-04-26T06:15:10;3.92;;;3.47;;
26634;SDS011;14490;54.208;37.686;2023-04-26T06:17:38;7.13;;;4.95;;
26634;SDS011;14490;54.208;37.686;2023-04-26T06:20:07;3.58;;;3.28;;
26634;SDS011;14490;54.208;37.686;2023-04-26T06:22:36;4.57;;;3.10;;
26634;SDS011;14490;54.208;37.686;2023-04-26T06:25:07;6.03;;;3.50;;
26634;SDS011;14490;54.208;37.686;2023-04-26T06:27:35;3.83;;;3.53;;
26634;SDS011;14490;54.208;37.686;2023-04-26T06:30:06;4.40;;;2.90;;
26634;SDS011;14490;54.208;37.686;2023-04-26T06:32:41;3.25;;;2.97;;
26634;SDS011;14490;54.208;37.686;2023-04-26T06:35:12;3.42;;;3.13;;
26634;SDS011;14490;54.208;37.686;2023-04-26T06:37:39;2.97;;;2.70;;
26634;SDS011;14490;54.208;37.686;2023-04-26T06:40:10;3.55;;;2.65;;
26634;SDS011;14490;54.208;37.686;2023-04-26T06:42:42;3.47;;;2.80;;
26634;SDS011;14490;54.208;37.686;2023-04-26T06:45:11;6.20;;;3.35;;
26634;SDS011;14490;54.208;37.686;2023-04-26T06:47:39;3.42;;;3.20;;
26634;SDS011;14490;54.208;37.686;2023-04-26T06:50:07;3.08;;;2.53;;
26634;SDS011;14490;54.208;37.686;2023-04-26T06:52:36;3.65;;;3.00;;
26634;SDS011;14490;54.208;37.686;2023-04-26T06:55:03;4.53;;;2.80;;
26634;SDS011;14490;54.208;37.686;2023-04-26T06:57:32;6.35;;;4.65;;
26634;SDS011;14490;54.208;37.686;2023-04-26T06:59:59;2.42;;;2.22;;
26634;SDS011;14490;54.208;37.686;2023-04-26T07:02:29;3.45;;;2.88;;
26634;SDS011;14490;54.208;37.686;2023-04-26T07:04:57;2.83;;;2.63;;
26634;SDS011;14490;54.208;37.686;2023-04-26T07:07:25;4.75;;;3.15;;
26634;SDS011;14490;54.208;37.686;2023-04-26T07:09:52;3.30;;;3.00;;
26634;SDS011;14490;54.208;37.686;2023-04-26T07:12:20;4.97;;;3.17;;
26634;SDS011;14490;54.208;37.686;2023-04-26T07:14:47;5.85;;;3.00;;
26634;SDS011;14490;54.208;37.686;2023-04-26T07:17:14;4.10;;;3.20;;
26634;SDS011;14490;54.208;37.686;2023-04-26T07:19:43;4.13;;;2.65;;
26634;SDS011;14490;54.208;37.686;2023-04-26T07:22:11;3.28;;;2.97;;
26634;SDS011;14490;54.208;37.686;2023-04-26T07:24:38;3.97;;;2.97;;
26634;SDS011;14490;54.208;37.686;2023-04-26T07:27:08;3.28;;;2.70;;
26634;SDS011;14490;54.208;37.686;2023-04-26T07:29:36;2.95;;;2.67;;
26634;SDS011;14490;54.208;37.686;2023-04-26T07:32:04;3.10;;;2.42;;
26634;SDS011;14490;54.208;37.686;2023-04-26T07:34:32;2.72;;;2.38;;
26634;SDS011;14490;54.208;37.686;2023-04-26T07:37:01;3.55;;;2.88;;
26634;SDS011;14490;54.208;37.686;2023-04-26T07:39:28;4.13;;;2.97;;
26634;SDS011;14490;54.208;37.686;2023-04-26T07:41:56;2.83;;;2.63;;
26634;SDS011;14490;54.208;37.686;2023-04-26T07:44:24;5.85;;;2.67;;
26634;SDS011;14490;54.208;37.686;2023-04-26T07:46:51;4.28;;;2.20;;
26634;SDS011;14490;54.208;37.686;2023-04-26T07:49:19;3.17;;;2.97;;
26634;SDS011;14490;54.208;37.686;2023-04-26T07:51:47;3.47;;;2.05;;
26634;SDS011;14490;54.208;37.686;2023-04-26T07:54:18;5.93;;;3.22;;
26634;SDS011;14490;54.208;37.686;2023-04-26T07:56:45;3.75;;;2.30;;
26634;SDS011;14490;54.208;37.686;2023-04-26T07:59:12;3.70;;;2.30;;
26634;SDS011;14490;54.208;37.686;2023-04-26T08:01:40;3.20;;;2.58;;
26634;SDS011;14490;54.208;37.686;2023-04-26T08:04:08;3.15;;;2.90;;
26634;SDS011;14490;54.208;37.686;2023-04-26T08:06:35;3.00;;;2.70;;
26634;SDS011;14490;54.208;37.686;2023-04-26T08:09:03;4.47;;;2.67;;
26634;SDS011;14490;54.208;37.686;2023-04-26T08:11:32;9.40;;;2.80;;
26634;SDS011;14490;54.208;37.686;2023-04-26T08:13:59;4.63;;;2.92;;
26634;SDS011;14490;54.208;37.686;2023-04-26T08:16:27;4.40;;;2.97;;
26634;SDS011;14490;54.208;37.686;2023-04-26T08:18:55;4.63;;;2.33;;
26634;SDS011;14490;54.208;37.686;2023-04-26T08:21:26;6.53;;;2.90;;
26634;SDS011;14490;54.208;37.686;2023-04-26T08:23:54;4.50;;;3.13;;
26634;SDS011;14490;54.208;37.686;2023-04-26T08:26:21;4.05;;;2.97;;
26634;SDS011;14490;54.208;37.686;2023-04-26T08:28:50;6.30;;;3.20;;
26634;SDS011;14490;54.208;37.686;2023-04-26T08:31:18;5.03;;;2.90;;
26634;SDS011;14490;54.208;37.686;2023-04-26T08:33:47;4.28;;;2.55;;
26634;SDS011;14490;54.208;37.686;2023-04-26T08:36:14;4.90;;;3.40;;
26634;SDS011;14490;54.208;37.686;2023-04-26T08:38:42;5.47;;;3.00;;
26634;SDS011;14490;54.208;37.686;2023-04-26T08:41:10;5.32;;;3.13;;
26634;SDS011;14490;54.208;37.686;2023-04-26T08:43:40;3.63;;;2.63;;
26634;SDS011;14490;54.208;37.686;2023-04-26T08:46:09;4.05;;;3.65;;
26634;SDS011;14490;54.208;37.686;2023-04-26T08:48:42;7.18;;;2.70;;
26634;SDS011;14490;54.208;37.686;2023-04-26T08:51:10;5.13;;;2.75;;
26634;SDS011;14490;54.208;37.686;2023-04-26T08:53:40;5.43;;;3.33;;
26634;SDS011;14490;54.208;37.686;2023-04-26T08:56:08;11.50;;;3.65;;
26634;SDS011;14490;54.208;37.686;2023-04-26T08:58:37;3.47;;;3.17;;
26634;SDS011;14490;54.208;37.686;2023-04-26T09:01:05;3.75;;;2.90;;
26634;SDS011;14490;54.208;37.686;2023-04-26T09:03:35;4.50;;;3.15;;
26634;SDS011;14490;54.208;37.686;2023-04-26T09:06:03;3.35;;;2.85;;
26634;SDS011;14490;54.208;37.686;2023-04-26T09:08:32;4.95;;;3.30;;
26634;SDS011;14490;54.208;37.686;2023-04-26T09:11:02;5.97;;;3.75;;
26634;SDS011;14490;54.208;37.686;2023-04-26T09:13:29;5.95;;;3.70;;
26634;SDS011;14490;54.208;37.686;2023-04-26T09:15:57;7.68;;;3.90;;
26634;SDS011;14490;54.208;37.686;2023-04-26T09:18:26;3.83;;;3.28;;
26634;SDS011;14490;54.208;37.686;2023-04-26T09:21:02;3.90;;;3.00;;
26634;SDS011;14490;54.208;37.686;2023-04-26T09:23:31;2.63;;;2.40;;
26634;SDS011;14490;54.208;37.686;2023-04-26T09:26:15;4.20;;;2.80;;
26634;SDS011;14490;54.208;37.686;2023-04-26T09:28:46;10.10;;;2.90;;
26634;SDS011;14490;54.208;37.686;2023-04-26T09:34:07;3.20;;;2.90;;
26634;SDS011;14490;54.208;37.686;2023-04-26T09:36:47;4.75;;;2.80;;
26634;SDS011;14490;54.208;37.686;2023-04-26T09:39:28;7.10;;;4.15;;
26634;SDS011;14490;54.208;37.686;2023-04-26T09:41:58;4.20;;;3.05;;
26634;SDS011;14490;54.208;37.686;2023-04-26T09:44:28;4.93;;;2.73;;
26634;SDS011;14490;54.208;37.686;2023-04-26T09:46:57;3.60;;;2.25;;
26634;SDS011;14490;54.208;37.686;2023-04-26T09:49:29;6.97;;;3.10;;
26634;SDS011;14490;54.208;37.686;2023-04-26T09:51:59;4.07;;;2.42;;
26634;SDS011;14490;54.208;37.686;2023-04-26T09:54:42;6.55;;;2.53;;
26634;SDS011;14490;54.208;37.686;2023-04-26T09:57:12;3.92;;;2.72;;
26634;SDS011;14490;54.208;37.686;2023-04-26T09:59:44;3.35;;;3.05;;
26634;SDS011;14490;54.208;37.686;2023-04-26T10:02:16;3.42;;;2.92;;
26634;SDS011;14490;54.208;37.686;2023-04-26T10:04:48;6.95;;;2.75;;
26634;SDS011;14490;54.208;37.686;2023-04-26T10:07:24;5.53;;;3.72;;
26634;SDS011;14490;54.208;37.686;2023-04-26T10:09:54;3.67;;;3.38;;
26634;SDS011;14490;54.208;37.686;2023-04-26T10:12:23;4.05;;;2.90;;
26634;SDS011;14490;54.208;37.686;2023-04-26T10:14:50;3.17;;;2.85;;
26634;SDS011;14490;54.208;37.686;2023-04-26T10:17:18;4.47;;;3.28;;
26634;SDS011;14490;54.208;37.686;2023-04-26T10:19:46;6.72;;;3.00;;
26634;SDS011;14490;54.208;37.686;2023-04-26T10:22:20;3.78;;;2.95;;
26634;SDS011;14490;54.208;37.686;2023-04-26T10:24:52;5.00;;;3.25;;
26634;SDS011;14490;54.208;37.686;2023-04-26T10:30:20;3.78;;;3.10;;
26634;SDS011;14490;54.208;37.686;2023-04-26T10:36:10;7.03;;;3.50;;
26634;SDS011;14490;54.208;37.686;2023-04-26T10:38:39;4.55;;;3.30;;
26634;SDS011;14490;54.208;37.686;2023-04-26T10:41:26;4.07;;;3.50;;
26634;SDS011;14490;54.208;37.686;2023-04-26T10:43:56;3.20;;;2.90;;
26634;SDS011;14490;54.208;37.686;2023-04-26T10:46:37;3.60;;;3.30;;
26634;SDS011;14490;54.208;37.686;2023-04-26T10:49:12;3.30;;;2.80;;
26634;SDS011;14490;54.208;37.686;2023-04-26T10:54:44;4.15;;;3.00;;
26634;SDS011;14490;54.208;37.686;2023-04-26T10:57:19;3.22;;;2.90;;
26634;SDS011;14490;54.208;37.686;2023-04-26T11:02:55;3.83;;;3.45;;
26634;SDS011;14490;54.208;37.686;2023-04-26T11:05:35;5.07;;;2.85;;
26634;SDS011;14490;54.208;37.686;2023-04-26T11:08:23;7.05;;;2.28;;
26634;SDS011;14490;54.208;37.686;2023-04-26T11:11:05;6.50;;;2.50;;
26634;SDS011;14490;54.208;37.686;2023-04-26T11:13:37;8.95;;;3.03;;
26634;SDS011;14490;54.208;37.686;2023-04-26T11:16:06;5.38;;;2.70;;
26634;SDS011;14490;54.208;37.686;2023-04-26T11:18:36;3.60;;;2.38;;
26634;SDS011;14490;54.208;37.686;2023-04-26T11:21:05;3.50;;;2.67;;
26634;SDS011;14490;54.208;37.686;2023-04-26T11:23:34;6.43;;;2.90;;
26634;SDS011;14490;54.208;37.686;2023-04-26T11:26:08;2.83;;;2.42;;
26634;SDS011;14490;54.208;37.686;2023-04-26T11:28:38;2.20;;;2.00;;
26634;SDS011;14490;54.208;37.686;2023-04-26T11:31:08;3.47;;;2.25;;
26634;SDS011;14490;54.208;37.686;2023-04-26T11:33:38;5.55;;;2.70;;
26634;SDS011;14490;54.208;37.686;2023-04-26T11:36:07;2.60;;;2.15;;
26634;SDS011;14490;54.208;37.686;2023-04-26T11:38:36;6.43;;;2.35;;
26634;SDS011;14490;54.208;37.686;2023-04-26T11:41:04;2.33;;;2.10;;
26634;SDS011;14490;54.208;37.686;2023-04-26T11:43:34;4.30;;;3.38;;
26634;SDS011;14490;54.208;37.686;2023-04-26T11:46:03;3.92;;;3.53;;
26634;SDS011;14490;54.208;37.686;2023-04-26T11:48:34;4.25;;;2.95;;
26634;SDS011;14490;54.208;37.686;2023-04-26T11:51:03;13.15;;;4.00;;
26634;SDS011;14490;54.208;37.686;2023-04-26T11:53:37;6.55;;;3.47;;
26634;SDS011;14490;54.208;37.686;2023-04-26T11:56:12;6.75;;;3.53;;
26634;SDS011;14490;54.208;37.686;2023-04-26T11:58:45;3.10;;;2.58;;
26634;SDS011;14490;54.208;37.686;2023-04-26T12:01:18;4.38;;;3.65;;
26634;SDS011;14490;54.208;37.686;2023-04-26T12:03:48;3.45;;;2.75;;
26634;SDS011;14490;54.208;37.686;2023-04-26T12:06:17;5.35;;;3.25;;
26634;SDS011;14490;54.208;37.686;2023-04-26T12:08:50;8.63;;;3.50;;
26634;SDS011;14490;54.208;37.686;2023-04-26T12:11:17;3.70;;;3.38;;
26634;SDS011;14490;54.208;37.686;2023-04-26T12:13:45;8.60;;;3.80;;
26634;SDS011;14490;54.208;37.686;2023-04-26T12:16:14;5.78;;;3.20;;
26634;SDS011;14490;54.208;37.686;2023-04-26T12:18:48;5.63;;;2.70;;
26634;SDS011;14490;54.208;37.686;2023-04-26T12:21:16;4.63;;;2.70;;
26634;SDS011;14490;54.208;37.686;2023-04-26T12:23:44;5.55;;;3.80;;
26634;SDS011;14490;54.208;37.686;2023-04-26T12:26:14;3.95;;;3.53;;
26634;SDS011;14490;54.208;37.686;2023-04-26T12:28:44;5.10;;;3.60;;
26634;SDS011;14490;54.208;37.686;2023-04-26T12:31:12;8.38;;;2.97;;
26634;SDS011;14490;54.208;37.686;2023-04-26T12:33:41;11.80;;;3.20;;
26634;SDS011;14490;54.208;37.686;2023-04-26T12:36:09;8.27;;;2.40;;
26634;SDS011;14490;54.208;37.686;2023-04-26T12:38:38;8.82;;;2.35;;
26634;SDS011;14490;54.208;37.686;2023-04-26T12:41:05;4.63;;;1.70;;
26634;SDS011;14490;54.208;37.686;2023-04-26T12:43:34;2.80;;;2.22;;
26634;SDS011;14490;54.208;37.686;2023-04-26T12:46:02;8.98;;;2.25;;
26634;SDS011;14490;54.208;37.686;2023-04-26T12:48:29;2.05;;;1.70;;
26634;SDS011;14490;54.208;37.686;2023-04-26T12:50:57;6.28;;;2.50;;
26634;SDS011;14490;54.208;37.686;2023-04-26T12:53:24;7.00;;;1.65;;
26634;SDS011;14490;54.208;37.686;2023-04-26T12:55:53;3.47;;;1.50;;
26634;SDS011;14490;54.208;37.686;2023-04-26T12:58:21;1.63;;;1.50;;
26634;SDS011;14490;54.208;37.686;2023-04-26T13:00:51;2.13;;;1.92;;
26634;SDS011;14490;54.208;37.686;2023-04-26T13:03:18;4.65;;;2.13;;
26634;SDS011;14490;54.208;37.686;2023-04-26T13:05:45;3.22;;;2.10;;
26634;SDS011;14490;54.208;37.686;2023-04-26T13:08:13;3.50;;;1.85;;
26634;SDS011;14490;54.208;37.686;2023-04-26T13:10:40;1.73;;;1.60;;
26634;SDS011;14490;54.208;37.686;2023-04-26T13:13:10;2.75;;;1.70;;
26634;SDS011;14490;54.208;37.686;2023-04-26T13:15:39;4.93;;;1.70;;
26634;SDS011;14490;54.208;37.686;2023-04-26T13:18:08;3.85;;;1.92;;
26634;SDS011;14490;54.208;37.686;2023-04-26T13:20:39;2.53;;;1.88;;
26634;SDS011;14490;54.208;37.686;2023-04-26T13:23:07;2.30;;;2.10;;
26634;SDS011;14490;54.208;37.686;2023-04-26T13:25:36;3.88;;;2.10;;
26634;SDS011;14490;54.208;37.686;2023-04-26T13:28:03;2.97;;;1.63;;
26634;SDS011;14490;54.208;37.686;2023-04-26T13:30:31;2.60;;;2.40;;
26634;SDS011;14490;54.208;37.686;2023-04-26T13:32:58;2.60;;;2.40;;
26634;SDS011;14490;54.208;37.686;2023-04-26T13:35:28;3.17;;;2.60;;
26634;SDS011;14490;54.208;37.686;2023-04-26T13:37:56;4.05;;;2.58;;
26634;SDS011;14490;54.208;37.686;2023-04-26T13:40:23;2.30;;;2.10;;
26634;SDS011;14490;54.208;37.686;2023-04-26T13:42:51;4.38;;;2.42;;
26634;SDS011;14490;54.208;37.686;2023-04-26T13:45:18;6.95;;;3.30;;
26634;SDS011;14490;54.208;37.686;2023-04-26T13:47:46;2.92;;;2.67;;
26634;SDS011;14490;54.208;37.686;2023-04-26T13:50:13;3.60;;;2.95;;
26634;SDS011;14490;54.208;37.686;2023-04-26T13:52:51;3.30;;;3.00;;
26634;SDS011;14490;54.208;37.686;2023-04-26T13:55:19;5.50;;;2.95;;
26634;SDS011;14490;54.208;37.686;2023-04-26T13:57:50;4.53;;;2.40;;
26634;SDS011;14490;54.208;37.686;2023-04-26T14:00:19;6.03;;;2.88;;
26634;SDS011;14490;54.208;37.686;2023-04-26T14:02:50;2.72;;;2.50;;
26634;SDS011;14490;54.208;37.686;2023-04-26T14:05:20;2.92;;;2.17;;
26634;SDS011;14490;54.208;37.686;2023-04-26T14:07:48;3.10;;;2.60;;
26634;SDS011;14490;54.208;37.686;2023-04-26T14:10:23;2.25;;;2.05;;
26634;SDS011;14490;54.208;37.686;2023-04-26T14:12:52;3.67;;;2.78;;
26634;SDS011;14490;54.208;37.686;2023-04-26T14:15:20;2.92;;;2.50;;
26634;SDS011;14490;54.208;37.686;2023-04-26T14:17:48;3.13;;;2.90;;
26634;SDS011;14490;54.208;37.686;2023-04-26T14:20:16;2.53;;;2.33;;
26634;SDS011;14490;54.208;37.686;2023-04-26T14:22:46;8.30;;;2.90;;
26634;SDS011;14490;54.208;37.686;2023-04-26T14:25:14;2.90;;;2.55;;
26634;SDS011;14490;54.208;37.686;2023-04-26T14:27:46;3.92;;;2.90;;
26634;SDS011;14490;54.208;37.686;2023-04-26T14:30:14;3.72;;;3.20;;
26634;SDS011;14490;54.208;37.686;2023-04-26T14:32:42;2.47;;;2.22;;
26634;SDS011;14490;54.208;37.686;2023-04-26T14:35:09;5.57;;;2.67;;
26634;SDS011;14490;54.208;37.686;2023-04-26T14:37:39;3.08;;;2.22;;
26634;SDS011;14490;54.208;37.686;2023-04-26T14:40:07;4.78;;;2.78;;
26634;SDS011;14490;54.208;37.686;2023-04-26T14:42:35;6.55;;;3.20;;
26634;SDS011;14490;54.208;37.686;2023-04-26T14:45:10;5.80;;;2.65;;
26634;SDS011;14490;54.208;37.686;2023-04-26T14:47:40;5.20;;;3.60;;
26634;SDS011;14490;54.208;37.686;2023-04-26T14:50:08;14.63;;;3.55;;
26634;SDS011;14490;54.208;37.686;2023-04-26T14:52:38;3.17;;;2.17;;
26634;SDS011;14490;54.208;37.686;2023-04-26T14:55:17;3.88;;;2.60;;